createdAt,value
2019-03-24T00:00:05.482Z,16.20
2019-03-24T00:02:33.998Z,22.82
2019-03-24T00:05:02.467Z,18.32
2019-03-24T00:07:30.988Z,20.88
2019-03-24T00:09:59.461Z,21.07
2019-03-24T00:12:27.927Z,22.35
2019-03-24T00:14:56.447Z,20.55
2019-03-24T00:17:24.913Z,23.50
2019-03-24T00:19:53.368Z,17.92
2019-03-24T00:22:21.885Z,20.60
2019-03-24T00:24:50.372Z,19.23
2019-03-24T00:27:18.904Z,24.15
2019-03-24T00:29:47.699Z,19.23
2019-03-24T00:32:16.239Z,20.32
2019-03-24T00:34:44.678Z,19.95
2019-03-24T00:37:13.153Z,19.23
2019-03-24T00:39:41.601Z,19.05
2019-03-24T00:42:10.150Z,18.23
2019-03-24T00:44:38.871Z,18.32
2019-03-24T00:47:07.741Z,16.87
2019-03-24T00:49:36.478Z,24.05
2019-03-24T00:52:05.064Z,22.02
2019-03-24T00:54:33.583Z,18.20
2019-03-24T00:57:02.057Z,15.95
2019-03-24T00:59:30.883Z,18.40
2019-03-24T01:01:59.410Z,16.37
2019-03-24T01:04:28.119Z,17.27
2019-03-24T01:06:56.819Z,16.67
2019-03-24T01:09:25.580Z,17.20
2019-03-24T01:11:54.110Z,19.60
2019-03-24T01:14:22.573Z,16.70
2019-03-24T01:16:51.120Z,17.98
2019-03-24T01:19:19.699Z,16.70
2019-03-24T01:21:48.176Z,24.02
2019-03-24T01:24:16.629Z,17.52
2019-03-24T01:26:45.109Z,19.02
2019-03-24T01:29:13.577Z,23.83
2019-03-24T01:31:42.073Z,20.08
2019-03-24T01:34:10.530Z,19.23
2019-03-24T01:36:38.984Z,20.02
2019-03-24T01:39:08.148Z,16.00
2019-03-24T01:41:36.621Z,20.95
2019-03-24T01:44:05.245Z,19.77
2019-03-24T01:46:33.979Z,23.00
2019-03-24T01:49:02.444Z,27.58
2019-03-24T01:51:31.205Z,25.27
2019-03-24T01:53:59.656Z,23.80
2019-03-24T01:56:28.165Z,20.17
2019-03-24T01:58:56.662Z,23.95
2019-03-24T02:01:25.148Z,23.05
2019-03-24T02:03:53.610Z,20.35
2019-03-24T02:06:22.093Z,18.48
2019-03-24T02:08:50.569Z,20.62
2019-03-24T02:11:19.325Z,24.40
2019-03-24T02:13:48.045Z,24.55
2019-03-24T02:16:16.519Z,31.62
2019-03-24T02:18:45.328Z,21.00
2019-03-24T02:21:14.158Z,25.57
2019-03-24T02:23:42.888Z,26.77
2019-03-24T02:26:11.345Z,20.52
2019-03-24T02:28:39.826Z,25.75
2019-03-24T02:31:08.380Z,28.98
2019-03-24T02:33:36.886Z,22.10
2019-03-24T02:36:05.482Z,26.60
2019-03-24T02:38:34.000Z,24.10
2019-03-24T02:41:02.547Z,27.67
2019-03-24T02:43:30.993Z,25.10
2019-03-24T02:45:59.811Z,25.23
2019-03-24T02:48:28.280Z,27.42
2019-03-24T02:50:56.815Z,32.48
2019-03-24T02:53:25.278Z,29.75
2019-03-24T02:55:53.731Z,34.13
2019-03-24T02:58:22.189Z,23.98
2019-03-24T03:00:50.834Z,26.57
2019-03-24T03:03:19.587Z,35.33
2019-03-24T03:05:48.121Z,33.63
2019-03-24T03:08:16.599Z,27.62
2019-03-24T03:10:45.047Z,33.75
2019-03-24T03:13:13.531Z,26.85
2019-03-24T03:15:41.974Z,27.50
2019-03-24T03:18:10.421Z,33.25
2019-03-24T03:20:38.889Z,28.55
2019-03-24T03:23:07.368Z,35.40
2019-03-24T03:25:35.895Z,26.20
2019-03-24T03:28:04.694Z,28.45
2019-03-24T03:30:33.152Z,28.85
2019-03-24T03:33:01.681Z,22.25
2019-03-24T03:35:30.294Z,23.22
2019-03-24T03:37:58.813Z,26.95
2019-03-24T03:40:27.402Z,29.18
2019-03-24T03:42:56.130Z,29.35
2019-03-24T03:45:28.748Z,27.10
2019-03-24T03:47:57.556Z,33.18
2019-03-24T03:50:26.389Z,24.47
2019-03-24T03:52:55.094Z,23.70
2019-03-24T03:55:23.625Z,28.65
2019-03-24T03:57:52.170Z,18.55
2019-03-24T04:00:23.963Z,26.68
2019-03-24T04:02:52.412Z,25.05
2019-03-24T04:05:20.875Z,29.72
2019-03-24T04:07:49.403Z,28.05
2019-03-24T04:10:17.891Z,33.35
2019-03-24T04:12:46.354Z,31.85
2019-03-24T04:15:14.946Z,21.23
2019-03-24T04:17:43.419Z,31.07
2019-03-24T04:20:12.022Z,23.12
2019-03-24T04:22:40.525Z,25.35
2019-03-24T04:25:09.425Z,29.25
2019-03-24T04:27:37.873Z,25.57
2019-03-24T04:30:08.343Z,28.02
2019-03-24T04:32:36.864Z,27.05
2019-03-24T04:35:09.541Z,29.60
2019-03-24T04:37:37.992Z,24.15
2019-03-24T04:40:07.681Z,22.35
2019-03-24T04:42:36.167Z,21.65
2019-03-24T04:45:05.938Z,30.05
2019-03-24T04:47:34.522Z,29.23
2019-03-24T04:50:03.057Z,27.20
2019-03-24T04:52:31.964Z,21.90
2019-03-24T04:55:00.486Z,30.43
2019-03-24T04:57:28.948Z,25.15
2019-03-24T04:59:57.410Z,25.90
2019-03-24T05:02:25.871Z,26.45
2019-03-24T05:04:54.397Z,23.12
2019-03-24T05:07:23.438Z,24.40
2019-03-24T05:09:51.964Z,30.43
2019-03-24T05:12:20.460Z,25.12
2019-03-24T05:14:48.989Z,30.40
2019-03-24T05:17:26.710Z,25.55
2019-03-24T05:19:47.640Z,25.90
2019-03-24T05:22:16.090Z,27.10
2019-03-24T05:24:44.576Z,28.47
2019-03-24T05:27:13.288Z,24.57
2019-03-24T05:29:41.736Z,34.27
2019-03-24T05:32:10.257Z,30.45
2019-03-24T05:34:38.708Z,29.63
2019-03-24T05:37:07.185Z,26.02
2019-03-24T05:39:35.628Z,36.95
2019-03-24T05:42:04.077Z,24.87
2019-03-24T05:44:32.907Z,36.58
2019-03-24T05:47:01.359Z,31.80
2019-03-24T05:49:29.926Z,24.27
2019-03-24T05:51:59.167Z,24.10
2019-03-24T05:54:27.639Z,30.37
2019-03-24T05:56:56.137Z,34.33
2019-03-24T05:59:24.702Z,28.50
2019-03-24T06:01:53.289Z,26.60
2019-03-24T06:04:21.817Z,25.15
2019-03-24T06:06:50.548Z,29.67
2019-03-24T06:09:19.051Z,22.07
2019-03-24T06:11:47.537Z,35.60
2019-03-24T06:14:16.317Z,30.35
2019-03-24T06:16:44.877Z,25.75
2019-03-24T06:19:13.367Z,29.12
2019-03-24T06:21:41.827Z,24.65
2019-03-24T06:24:10.322Z,32.13
2019-03-24T06:26:38.830Z,26.25
2019-03-24T06:29:07.329Z,28.23
2019-03-24T06:31:35.861Z,34.58
2019-03-24T06:34:04.383Z,28.23
2019-03-24T06:36:32.968Z,32.30
2019-03-24T06:39:01.843Z,29.25
2019-03-24T06:41:30.714Z,31.48
2019-03-24T06:43:59.193Z,27.07
2019-03-24T06:46:27.734Z,28.83
2019-03-24T06:48:56.255Z,28.50
2019-03-24T06:51:26.052Z,30.45
2019-03-24T06:53:54.697Z,26.95
2019-03-24T06:56:23.281Z,27.42
2019-03-24T06:58:53.208Z,31.05
2019-03-24T07:01:21.690Z,26.90
2019-03-24T07:03:50.181Z,28.35
2019-03-24T07:06:18.651Z,23.65
2019-03-24T07:08:47.210Z,23.73
2019-03-24T07:11:15.784Z,26.45
2019-03-24T07:13:44.219Z,29.52
2019-03-24T07:16:12.670Z,22.93
2019-03-24T07:18:41.409Z,33.05
2019-03-24T07:21:11.470Z,23.80
2019-03-24T07:23:39.889Z,25.30
2019-03-24T07:26:08.384Z,25.52
2019-03-24T07:28:36.831Z,25.17
2019-03-24T07:31:06.831Z,29.10
2019-03-24T07:33:35.314Z,27.52
2019-03-24T07:36:03.788Z,24.32
2019-03-24T07:38:32.259Z,29.52
2019-03-24T07:41:00.801Z,30.92
2019-03-24T07:43:29.252Z,27.70
2019-03-24T07:45:58.078Z,24.60
2019-03-24T07:48:26.604Z,29.37
2019-03-24T07:50:55.824Z,30.52
2019-03-24T07:53:24.292Z,29.57
2019-03-24T07:55:52.764Z,27.48
2019-03-24T07:58:21.203Z,24.02
2019-03-24T08:00:49.753Z,25.25
2019-03-24T08:03:18.310Z,24.55
2019-03-24T08:05:46.766Z,26.25
2019-03-24T08:08:18.263Z,21.12
2019-03-24T08:10:46.814Z,23.98
2019-03-24T08:13:15.288Z,29.27
2019-03-24T08:15:43.773Z,21.30
2019-03-24T08:18:12.429Z,23.25
2019-03-24T08:20:41.006Z,23.80
2019-03-24T08:23:12.810Z,26.60
2019-03-24T08:25:41.419Z,23.27
2019-03-24T08:28:10.009Z,18.95
2019-03-24T08:30:38.646Z,23.02
2019-03-24T08:33:07.260Z,23.32
2019-03-24T08:35:35.822Z,28.62
2019-03-24T08:38:04.548Z,23.25
2019-03-24T08:40:33.018Z,26.35
2019-03-24T08:43:01.652Z,23.30
2019-03-24T08:45:30.789Z,26.33
2019-03-24T08:47:59.402Z,23.12
2019-03-24T08:50:28.046Z,20.85
2019-03-24T08:52:56.794Z,25.35
2019-03-24T08:55:25.360Z,22.93
2019-03-24T08:57:53.853Z,25.52
2019-03-24T09:00:30.098Z,20.70
2019-03-24T09:02:52.762Z,21.52
2019-03-24T09:05:21.243Z,21.12
2019-03-24T09:07:49.741Z,22.42
2019-03-24T09:10:18.339Z,21.40
2019-03-24T09:12:46.863Z,19.37
2019-03-24T09:15:15.463Z,21.75
2019-03-24T09:17:43.954Z,17.35
2019-03-24T09:20:14.113Z,22.15
2019-03-24T09:22:42.623Z,23.98
2019-03-24T09:25:11.598Z,21.55
2019-03-24T09:27:40.213Z,23.15
2019-03-24T09:30:11.758Z,21.45
2019-03-24T09:32:40.265Z,23.75
2019-03-24T09:35:08.801Z,20.40
2019-03-24T09:37:37.313Z,21.82
2019-03-24T09:40:08.703Z,16.12
2019-03-24T09:42:37.499Z,17.95
2019-03-24T09:45:06.563Z,21.48
2019-03-24T09:47:35.119Z,19.77
2019-03-24T09:50:04.377Z,19.50
2019-03-24T09:52:32.904Z,19.57
2019-03-24T09:55:01.442Z,17.65
2019-03-24T09:57:30.244Z,17.23
2019-03-24T09:59:58.751Z,20.15
2019-03-24T10:02:27.307Z,16.67
2019-03-24T10:04:55.773Z,20.35
2019-03-24T10:07:24.424Z,23.77
2019-03-24T10:09:52.941Z,23.55
2019-03-24T10:12:21.471Z,17.40
2019-03-24T10:14:50.058Z,19.67
2019-03-24T10:17:18.565Z,16.73
2019-03-24T10:19:47.186Z,15.80
2019-03-24T10:22:15.744Z,17.67
2019-03-24T10:24:44.315Z,21.52
2019-03-24T10:27:13.097Z,14.75
2019-03-24T10:29:41.601Z,15.28
2019-03-24T10:32:10.459Z,13.72
2019-03-24T10:34:39.024Z,17.02
2019-03-24T10:37:07.628Z,16.15
2019-03-24T10:39:36.335Z,18.85
2019-03-24T10:42:04.908Z,15.43
2019-03-24T10:44:33.533Z,19.95
2019-03-24T10:47:02.129Z,17.80
2019-03-24T10:49:30.670Z,16.73
2019-03-24T10:51:59.228Z,9.65
2019-03-24T10:54:27.807Z,14.60
2019-03-24T10:56:56.534Z,12.58
2019-03-24T10:59:25.066Z,14.15
2019-03-24T11:01:53.620Z,13.53
2019-03-24T11:04:22.270Z,11.00
2019-03-24T11:06:50.844Z,12.43
2019-03-24T11:09:19.315Z,14.00
2019-03-24T11:11:48.066Z,12.33
2019-03-24T11:14:16.638Z,16.35
2019-03-24T11:16:45.184Z,9.68
2019-03-24T11:19:13.695Z,11.43
2019-03-24T11:21:42.200Z,10.78
2019-03-24T11:24:10.727Z,10.93
2019-03-24T11:26:39.277Z,12.28
2019-03-24T11:29:11.352Z,8.98
2019-03-24T11:31:40.432Z,15.00
2019-03-24T11:34:09.022Z,15.88
2019-03-24T11:36:37.512Z,15.13
2019-03-24T11:39:07.130Z,15.35
2019-03-24T11:41:35.603Z,18.77
2019-03-24T11:44:04.316Z,19.30
2019-03-24T11:46:32.888Z,15.72
2019-03-24T11:49:01.532Z,16.60
2019-03-24T11:51:30.141Z,12.93
2019-03-24T11:53:58.775Z,15.25
2019-03-24T11:56:27.457Z,14.35
2019-03-24T11:58:56.234Z,15.75
2019-03-24T12:01:24.935Z,13.60
2019-03-24T12:04:00.650Z,9.95
2019-03-24T12:06:29.859Z,11.15
2019-03-24T12:09:00.170Z,10.43
2019-03-24T12:11:28.982Z,9.75
2019-03-24T12:13:57.717Z,12.73
2019-03-24T12:16:26.308Z,10.98
2019-03-24T12:18:54.970Z,13.55
2019-03-24T12:21:23.650Z,12.80
2019-03-24T12:23:52.250Z,16.10
2019-03-24T12:26:20.868Z,14.10
2019-03-24T12:28:49.473Z,11.18
2019-03-24T12:31:18.429Z,10.95
2019-03-24T12:33:46.997Z,9.60
2019-03-24T12:36:15.652Z,8.80
2019-03-24T12:38:44.158Z,12.23
2019-03-24T12:41:12.609Z,9.40
2019-03-24T12:43:41.179Z,8.40
2019-03-24T12:46:09.759Z,8.98
2019-03-24T12:48:38.304Z,9.28
2019-03-24T12:51:06.889Z,8.43
2019-03-24T12:53:35.442Z,8.08
2019-03-24T12:56:04.300Z,11.70
2019-03-24T12:58:32.846Z,10.50
2019-03-24T13:01:01.327Z,8.78
2019-03-24T13:03:29.811Z,11.78
2019-03-24T13:05:58.415Z,11.80
2019-03-24T13:08:26.891Z,10.93
2019-03-24T13:10:55.383Z,10.95
2019-03-24T13:13:24.207Z,12.53
2019-03-24T13:15:52.718Z,10.88
2019-03-24T13:18:21.535Z,9.23
2019-03-24T13:20:49.986Z,10.50
2019-03-24T13:23:18.501Z,11.33
2019-03-24T13:25:47.012Z,9.70
2019-03-24T13:28:15.577Z,9.93
2019-03-24T13:30:44.138Z,10.03
2019-03-24T13:33:12.610Z,7.97
2019-03-24T13:35:41.268Z,10.58
2019-03-24T13:38:09.817Z,13.48
2019-03-24T13:40:38.372Z,13.08
2019-03-24T13:43:06.947Z,11.22
2019-03-24T13:45:35.423Z,8.60
2019-03-24T13:48:03.960Z,7.53
2019-03-24T13:50:32.450Z,10.88
2019-03-24T13:53:01.093Z,10.80
2019-03-24T13:55:29.658Z,13.25
2019-03-24T13:57:58.375Z,11.08
2019-03-24T14:00:26.949Z,8.05
2019-03-24T14:02:55.831Z,13.43
2019-03-24T14:05:24.424Z,10.00
2019-03-24T14:07:52.938Z,14.78
2019-03-24T14:10:21.414Z,13.05
2019-03-24T14:12:50.272Z,12.20
2019-03-24T14:15:21.527Z,11.95
2019-03-24T14:17:49.993Z,9.33
2019-03-24T14:20:18.624Z,9.98
2019-03-24T14:22:47.259Z,6.62
2019-03-24T14:25:15.731Z,8.48
2019-03-24T14:27:44.271Z,10.98
2019-03-24T14:30:13.327Z,6.80
2019-03-24T14:32:41.912Z,10.85
2019-03-24T14:35:10.615Z,12.37
2019-03-24T14:37:39.166Z,8.58
2019-03-24T14:40:08.621Z,13.05
2019-03-24T14:42:37.215Z,10.08
2019-03-24T14:45:08.299Z,10.98
2019-03-24T14:47:37.890Z,8.93
2019-03-24T14:50:07.307Z,10.15
2019-03-24T14:52:36.036Z,9.78
2019-03-24T14:55:06.583Z,10.15
2019-03-24T14:57:35.175Z,6.60
2019-03-24T15:00:05.138Z,9.75
2019-03-24T15:02:33.766Z,10.05
2019-03-24T15:05:02.526Z,9.93
2019-03-24T15:07:31.082Z,8.08
2019-03-24T15:09:59.666Z,11.75
2019-03-24T15:12:28.272Z,8.45
2019-03-24T15:14:57.312Z,9.90
2019-03-24T15:17:25.840Z,8.60
2019-03-24T15:19:54.464Z,6.97
2019-03-24T15:22:23.044Z,9.60
2019-03-24T15:24:53.575Z,8.40
2019-03-24T15:27:22.413Z,5.20
2019-03-24T15:29:51.179Z,6.80
2019-03-24T15:32:20.325Z,6.55
2019-03-24T15:34:48.934Z,8.70
2019-03-24T15:37:18.618Z,8.55
2019-03-24T15:39:47.372Z,7.42
2019-03-24T15:42:16.047Z,8.10
2019-03-24T15:44:44.672Z,4.60
2019-03-24T15:47:13.390Z,7.90
2019-03-24T15:49:42.050Z,7.67
2019-03-24T15:52:10.808Z,9.63
2019-03-24T15:54:39.413Z,6.75
2019-03-24T15:57:09.991Z,6.47
2019-03-24T15:59:38.994Z,7.10
2019-03-24T16:02:07.516Z,7.17
2019-03-24T16:04:36.142Z,6.47
2019-03-24T16:07:04.870Z,5.08
2019-03-24T16:09:33.519Z,6.17
2019-03-24T16:12:02.041Z,6.55
2019-03-24T16:14:30.615Z,7.50
2019-03-24T16:17:01.761Z,7.15
2019-03-24T16:19:29.729Z,5.97
2019-03-24T16:21:58.420Z,6.95
2019-03-24T16:24:27.115Z,8.88
2019-03-24T16:26:55.917Z,9.13
2019-03-24T16:29:24.742Z,8.45
2019-03-24T16:31:53.371Z,10.20
2019-03-24T16:34:21.975Z,9.10
2019-03-24T16:36:53.527Z,10.85
2019-03-24T16:39:22.516Z,17.45
2019-03-24T16:41:51.242Z,15.13
2019-03-24T16:44:19.911Z,7.12
2019-03-24T16:46:52.094Z,6.42
2019-03-24T16:49:20.522Z,7.17
2019-03-24T16:51:49.043Z,8.48
2019-03-24T16:54:17.621Z,4.12
2019-03-24T16:56:46.113Z,10.80
2019-03-24T16:59:14.779Z,8.13
2019-03-24T17:01:43.344Z,8.00
2019-03-24T17:04:11.899Z,11.35
2019-03-24T17:06:40.547Z,8.70
2019-03-24T17:09:09.235Z,9.45
2019-03-24T17:11:37.843Z,7.33
2019-03-24T17:14:06.522Z,10.13
2019-03-24T17:16:35.201Z,9.83
2019-03-24T17:19:03.999Z,10.23
2019-03-24T17:21:32.541Z,9.78
2019-03-24T17:24:01.084Z,10.48
2019-03-24T17:26:29.641Z,10.50
2019-03-24T17:28:58.240Z,14.93
2019-03-24T17:31:26.905Z,10.60
2019-03-24T17:33:55.565Z,8.38
2019-03-24T17:36:24.110Z,12.75
2019-03-24T17:38:52.633Z,9.48
2019-03-24T17:41:21.141Z,9.88
2019-03-24T17:43:50.217Z,9.95
2019-03-24T17:46:22.734Z,11.12
2019-03-24T17:48:50.948Z,13.43
2019-03-24T17:51:19.458Z,11.40
2019-03-24T17:53:47.949Z,10.18
2019-03-24T17:56:16.437Z,10.08
2019-03-24T17:58:45.029Z,11.95
2019-03-24T18:01:13.618Z,8.90
2019-03-24T18:03:42.299Z,11.97
2019-03-24T18:06:10.793Z,9.88
2019-03-24T18:08:39.361Z,11.88
2019-03-24T18:11:07.984Z,12.68
2019-03-24T18:13:39.507Z,9.38
2019-03-24T18:16:08.126Z,15.28
2019-03-24T18:18:36.665Z,12.28
2019-03-24T18:21:05.322Z,10.78
2019-03-24T18:23:33.854Z,12.63
2019-03-24T18:26:02.841Z,11.93
2019-03-24T18:28:31.723Z,13.58
2019-03-24T18:31:00.385Z,9.20
2019-03-24T18:33:28.914Z,11.10
2019-03-24T18:35:57.493Z,12.40
2019-03-24T18:38:26.050Z,14.20
2019-03-24T18:40:54.650Z,12.68
2019-03-24T18:43:23.226Z,8.23
2019-03-24T18:45:51.769Z,9.85
2019-03-24T18:48:20.272Z,12.80
2019-03-24T18:50:48.795Z,12.88
2019-03-24T18:53:17.824Z,20.15
2019-03-24T18:55:46.448Z,16.35
2019-03-24T18:58:15.030Z,14.13
2019-03-24T19:00:43.624Z,10.23
2019-03-24T19:03:12.651Z,12.70
2019-03-24T19:05:41.650Z,10.32
2019-03-24T19:08:10.264Z,18.17
2019-03-24T19:10:38.850Z,11.35
2019-03-24T19:13:07.439Z,12.58
2019-03-24T19:15:37.494Z,12.58
2019-03-24T19:18:06.318Z,7.53
2019-03-24T19:20:34.962Z,11.53
2019-03-24T19:23:03.538Z,10.10
2019-03-24T19:25:32.135Z,13.45
2019-03-24T19:28:00.941Z,18.52
2019-03-24T19:30:35.153Z,18.85
2019-03-24T19:33:03.933Z,17.32
2019-03-24T19:35:32.656Z,19.25
2019-03-24T19:38:01.775Z,15.68
2019-03-24T19:40:33.474Z,14.45
2019-03-24T19:43:02.248Z,14.13
2019-03-24T19:45:30.895Z,11.90
2019-03-24T19:47:59.518Z,9.58
2019-03-24T19:50:28.085Z,13.45
2019-03-24T19:52:56.642Z,11.97
2019-03-24T19:55:25.253Z,14.18
2019-03-24T19:57:53.752Z,10.48
2019-03-24T20:00:22.226Z,14.13
2019-03-24T20:02:50.950Z,12.80
2019-03-24T20:05:19.593Z,16.20
2019-03-24T20:07:48.526Z,14.78
2019-03-24T20:10:17.249Z,14.15
2019-03-24T20:12:45.786Z,14.23
2019-03-24T20:15:14.560Z,14.15
2019-03-24T20:17:43.016Z,15.55
2019-03-24T20:20:12.236Z,13.55
2019-03-24T20:22:40.905Z,15.55
2019-03-24T20:25:09.488Z,13.30
2019-03-24T20:27:38.118Z,12.05
2019-03-24T20:30:09.390Z,16.60
2019-03-24T20:32:37.932Z,12.33
2019-03-24T20:35:07.774Z,12.35
2019-03-24T20:37:36.497Z,15.75
2019-03-24T20:40:06.978Z,15.43
2019-03-24T20:42:35.488Z,12.98
2019-03-24T20:45:05.763Z,12.35
2019-03-24T20:47:34.300Z,18.12
2019-03-24T20:50:03.880Z,13.15
2019-03-24T20:52:32.477Z,15.25
2019-03-24T20:55:01.013Z,13.08
2019-03-24T20:57:29.647Z,10.35
2019-03-24T20:59:58.144Z,13.93
2019-03-24T21:02:26.611Z,13.95
2019-03-24T21:04:55.079Z,13.98
2019-03-24T21:07:23.562Z,14.53
2019-03-24T21:09:52.027Z,15.55
2019-03-24T21:12:20.549Z,16.27
2019-03-24T21:14:49.399Z,17.15
2019-03-24T21:17:17.907Z,15.53
2019-03-24T21:19:46.409Z,16.00
2019-03-24T21:22:15.243Z,17.75
2019-03-24T21:24:43.720Z,17.27
2019-03-24T21:27:12.278Z,16.35
2019-03-24T21:29:40.809Z,16.57
2019-03-24T21:32:09.621Z,15.95
2019-03-24T21:34:38.047Z,13.25
2019-03-24T21:37:06.539Z,14.28
2019-03-24T21:39:35.109Z,14.95
2019-03-24T21:42:03.679Z,13.65
2019-03-24T21:44:32.153Z,15.85
2019-03-24T21:47:00.691Z,17.57
2019-03-24T21:49:29.196Z,13.35
2019-03-24T21:51:57.630Z,14.50
2019-03-24T21:54:26.108Z,11.95
2019-03-24T21:56:54.907Z,12.80
2019-03-24T21:59:23.494Z,13.90
2019-03-24T22:01:52.023Z,13.62
2019-03-24T22:04:20.461Z,13.65
2019-03-24T22:06:49.261Z,13.13
2019-03-24T22:09:17.770Z,15.88
2019-03-24T22:11:46.383Z,13.88
2019-03-24T22:14:15.633Z,16.70
2019-03-24T22:16:44.141Z,17.27
2019-03-24T22:19:12.690Z,14.15
2019-03-24T22:21:41.182Z,13.18
2019-03-24T22:24:09.689Z,14.25
2019-03-24T22:26:38.202Z,15.30
2019-03-24T22:29:06.703Z,16.17
2019-03-24T22:31:35.267Z,18.30
2019-03-24T22:34:04.173Z,15.25
2019-03-24T22:36:32.722Z,15.08
2019-03-24T22:39:01.251Z,16.23
2019-03-24T22:41:29.893Z,16.95
2019-03-24T22:43:58.417Z,14.00
2019-03-24T22:46:26.895Z,18.02
2019-03-24T22:48:55.408Z,17.27
2019-03-24T22:51:24.009Z,17.23
2019-03-24T22:54:02.815Z,17.50
2019-03-24T22:56:22.692Z,16.45
2019-03-24T22:58:51.600Z,15.90
2019-03-24T23:01:20.351Z,17.15
2019-03-24T23:03:48.826Z,13.32
2019-03-24T23:06:17.307Z,13.03
2019-03-24T23:08:46.173Z,13.60
2019-03-24T23:11:14.696Z,21.52
2019-03-24T23:13:43.214Z,16.77
2019-03-24T23:16:11.751Z,15.85
2019-03-24T23:18:40.234Z,14.60
2019-03-24T23:21:08.706Z,16.62
2019-03-24T23:23:37.187Z,16.93
2019-03-24T23:26:05.734Z,16.20
2019-03-24T23:28:34.227Z,17.32
2019-03-24T23:31:02.735Z,17.30
2019-03-24T23:33:31.259Z,18.67
2019-03-24T23:35:59.862Z,17.90
2019-03-24T23:38:28.364Z,20.37
2019-03-24T23:40:56.902Z,22.62
2019-03-24T23:43:25.487Z,20.90
2019-03-24T23:45:54.036Z,23.30
2019-03-24T23:48:22.536Z,23.42
2019-03-24T23:50:50.998Z,19.50
2019-03-24T23:53:19.487Z,30.12
2019-03-24T23:55:47.970Z,24.12
2019-03-24T23:58:16.859Z,27.90
